Time;durP1;ratioP1;P1;durP2;ratioP2;P2;SDS_P1;SDS_P2;PMS_P1;PMS_P2;Temp;Humidity;BMP_temperature;BMP_pressure;BME280_temperature;BME280_humidity;BME280_pressure;Samples;Min_cycle;Max_cycle;Signal;HPM_P1;HPM_P2
2022/06/23 00:02:03;;;;;;;4.75;4.30;;;;;;;14.15;100.00;101514.59;4890098;29;20051;-76
2022/06/23 00:04:44;;;;;;;5.45;4.13;;;;;;;14.12;100.00;101515.50;4865862;29;20051;-76
2022/06/23 00:07:20;;;;;;;4.82;4.53;;;;;;;14.10;100.00;101516.34;4914365;29;20249;-76
2022/06/23 00:09:54;;;;;;;5.20;4.80;;;;;;;14.07;100.00;101511.94;4875297;29;20041;-76
2022/06/23 00:12:32;;;;;;;5.78;4.78;;;;;;;14.03;100.00;101505.75;4894895;29;20052;-76
2022/06/23 00:15:01;;;;;;;4.68;4.35;;;;;;;14.03;100.00;101507.53;4901892;29;20259;-77
2022/06/23 00:17:30;;;;;;;5.25;4.75;;;;;;;14.03;100.00;101499.59;4902753;29;20063;-76
2022/06/23 00:20:01;;;;;;;7.13;4.32;;;;;;;14.03;100.00;101502.25;4869231;29;20055;-76
2022/06/23 00:22:32;;;;;;;5.03;4.72;;;;;;;14.02;100.00;101503.09;4903878;29;20049;-76
2022/06/23 00:25:04;;;;;;;5.85;4.20;;;;;;;14.01;100.00;101504.88;4895289;29;20032;-77
2022/06/23 00:27:38;;;;;;;5.00;4.45;;;;;;;14.00;100.00;101511.06;4898534;29;20182;-76
2022/06/23 00:30:20;;;;;;;5.90;4.90;;;;;;;13.99;100.00;101508.44;4903566;29;20044;-76
2022/06/23 00:32:49;;;;;;;7.82;4.40;;;;;;;13.97;100.00;101500.47;4904486;29;20047;-76
2022/06/23 00:35:18;;;;;;;5.30;4.90;;;;;;;13.97;100.00;101507.53;4865143;29;20079;-76
2022/06/23 00:37:50;;;;;;;5.13;4.67;;;;;;;13.95;100.00;101510.19;4916466;29;20048;-76
2022/06/23 00:40:22;;;;;;;5.80;5.22;;;;;;;13.92;100.00;101507.53;4878303;29;20151;-77
2022/06/23 00:42:52;;;;;;;5.40;5.00;;;;;;;13.91;100.00;101496.94;4907619;29;20059;-76
2022/06/23 00:45:48;;;;;;;5.32;4.90;;;;;;;13.88;100.00;101507.56;4895560;29;20055;-77
2022/06/23 00:48:29;;;;;;;9.07;5.65;;;;;;;13.84;100.00;101496.06;4902545;29;20044;-76
2022/06/23 00:51:18;;;;;;;5.85;5.40;;;;;;;13.83;100.00;101503.09;4868865;29;20051;-77
2022/06/23 00:53:51;;;;;;;4.80;4.47;;;;;;;13.84;100.00;101506.66;4905638;29;20926;-77
2022/06/23 00:56:38;;;;;;;6.28;5.72;;;;;;;13.84;100.00;101499.59;4892993;29;20186;-76
2022/06/23 00:59:37;;;;;;;6.88;5.43;;;;;;;13.86;100.00;101493.41;4884651;29;20051;-77
2022/06/23 01:02:12;;;;;;;5.90;5.30;;;;;;;13.83;100.00;101494.28;4901061;29;20086;-77
2022/06/23 01:04:46;;;;;;;6.40;5.65;;;;;;;13.82;100.00;101487.25;4905611;29;20048;-77
2022/06/23 01:07:37;;;;;;;6.10;5.50;;;;;;;13.84;100.00;101496.06;4865790;29;20048;-77
2022/06/23 01:10:15;;;;;;;6.93;6.20;;;;;;;13.83;100.00;101503.09;4904151;29;20532;-77
2022/06/23 01:12:53;;;;;;;5.38;4.95;;;;;;;13.83;100.00;101492.50;4891021;29;20071;-77
2022/06/23 01:15:22;;;;;;;5.63;5.22;;;;;;;13.82;100.00;101488.13;4905123;29;20070;-77
2022/06/23 01:18:21;;;;;;;5.88;5.47;;;;;;;13.82;100.00;101484.59;4911172;29;20062;-76
2022/06/23 01:21:16;;;;;;;5.57;4.93;;;;;;;13.81;100.00;101493.41;4868105;29;20048;-76
2022/06/23 01:24:21;;;;;;;5.63;5.10;;;;;;;13.81;100.00;101485.47;4906445;29;20048;-77
2022/06/23 01:27:08;;;;;;;6.05;5.55;;;;;;;13.80;100.00;101491.66;4904472;29;20375;-76
2022/06/23 01:29:46;;;;;;;6.18;5.50;;;;;;;13.78;100.00;101489.00;4898486;29;23460;-76
2022/06/23 01:32:28;;;;;;;6.00;5.40;;;;;;;13.78;100.00;101490.75;4901603;29;20052;-76
2022/06/23 01:35:03;;;;;;;5.70;5.18;;;;;;;13.77;100.00;101492.53;4905276;29;20048;-76
2022/06/23 01:38:08;;;;;;;6.65;5.25;;;;;;;13.76;100.00;101496.06;4866875;29;20266;-77
2022/06/23 01:40:47;;;;;;;8.20;5.72;;;;;;;13.77;100.00;101489.00;4894192;29;20044;-76
2022/06/23 01:43:40;;;;;;;6.43;5.47;;;;;;;13.76;100.00;101484.56;4893543;29;20036;-77
2022/06/23 01:46:19;;;;;;;5.65;4.97;;;;;;;13.75;100.00;101482.81;4899526;29;20055;-77
2022/06/23 01:48:57;;;;;;;5.78;5.18;;;;;;;13.73;100.00;101484.59;4907249;29;20052;-76
2022/06/23 01:51:36;;;;;;;5.35;4.50;;;;;;;13.74;100.00;101486.34;4886318;29;20052;-76
2022/06/23 01:54:13;;;;;;;5.75;5.20;;;;;;;13.72;100.00;101481.03;4839543;29;20078;-76
2022/06/23 01:56:44;;;;;;;5.80;5.35;;;;;;;13.72;100.00;101478.38;4905357;29;20082;-76
2022/06/23 01:59:40;;;;;;;5.38;4.97;;;;;;;13.73;100.00;101489.88;4893688;29;20067;-77
2022/06/23 02:02:22;;;;;;;5.38;4.88;;;;;;;13.70;100.00;101490.75;4896734;29;20052;-77
2022/06/23 02:05:17;;;;;;;5.32;4.88;;;;;;;13.68;100.00;101471.31;4889207;29;20047;-76
2022/06/23 02:07:55;;;;;;;6.20;4.88;;;;;;;13.67;100.00;101473.97;4845787;29;20048;-76
2022/06/23 02:10:30;;;;;;;4.90;4.55;;;;;;;13.65;100.00;101480.16;4893784;29;20143;-77
2022/06/23 02:13:07;;;;;;;5.53;5.00;;;;;;;13.64;100.00;101470.44;4905158;29;20052;-76
2022/06/23 02:16:02;;;;;;;5.28;4.78;;;;;;;13.65;100.00;101474.00;4895529;29;20109;-76
2022/06/23 02:18:57;;;;;;;5.05;4.63;;;;;;;13.63;100.00;101473.97;4899264;29;20080;-76
2022/06/23 02:21:54;;;;;;;5.40;4.90;;;;;;;13.59;100.00;101471.31;4890954;29;20266;-77
2022/06/23 02:24:31;;;;;;;5.47;4.97;;;;;;;13.56;100.00;101466.91;4873534;29;20187;-76
2022/06/23 02:27:15;;;;;;;5.53;5.07;;;;;;;13.56;100.00;101468.69;4918315;29;20059;-77
2022/06/23 02:30:01;;;;;;;5.50;5.00;;;;;;;13.54;100.00;101473.09;4918208;28;20047;-77
2022/06/23 02:33:01;;;;;;;7.80;4.78;;;;;;;13.50;100.00;101474.84;4891157;29;20140;-77
2022/06/23 02:35:36;;;;;;;7.20;5.03;;;;;;;13.49;100.00;101481.03;4903457;29;20052;-76
2022/06/23 02:38:26;;;;;;;4.95;4.50;;;;;;;13.46;100.00;101481.03;4892710;29;20054;-76
2022/06/23 02:41:18;;;;;;;10.48;6.90;;;;;;;13.44;100.00;101473.09;4897060;29;20051;-76
2022/06/23 02:43:56;;;;;;;6.90;5.78;;;;;;;13.47;100.00;101461.59;4908389;29;20058;-77
2022/06/23 02:46:38;;;;;;;5.80;4.78;;;;;;;13.47;100.00;101458.97;4878716;29;20186;-77
2022/06/23 02:49:38;;;;;;;6.40;5.25;;;;;;;13.49;100.00;101473.06;4911184;29;20059;-76
2022/06/23 02:52:51;;;;;;;6.95;5.95;;;;;;;13.52;100.00;101457.19;4907731;29;20055;-77
2022/06/23 02:55:44;;;;;;;5.85;5.25;;;;;;;13.53;100.00;101450.13;4873370;28;20032;-76
2022/06/23 02:58:19;;;;;;;7.65;5.82;;;;;;;13.56;100.00;101444.84;4905423;29;20052;-77
2022/06/23 03:01:05;;;;;;;7.38;6.20;;;;;;;13.57;100.00;101447.50;4900963;29;20044;-77
2022/06/23 03:03:51;;;;;;;7.55;5.28;;;;;;;13.58;100.00;101438.66;4910858;29;20586;-76
2022/06/23 03:06:37;;;;;;;6.90;5.93;;;;;;;13.60;100.00;101442.19;4903823;29;20272;-76
2022/06/23 03:09:14;;;;;;;7.60;6.90;;;;;;;13.63;100.00;101447.50;4887555;29;20047;-77
2022/06/23 03:11:52;;;;;;;8.15;7.35;;;;;;;13.67;100.00;101431.59;4923867;29;20052;-77
2022/06/23 03:14:42;;;;;;;9.98;7.70;;;;;;;13.73;100.00;101436.91;4903305;29;20267;-76
2022/06/23 03:17:16;;;;;;;9.93;7.10;;;;;;;13.74;100.00;101433.38;4901987;29;20044;-77
2022/06/23 03:19:57;;;;;;;8.15;7.35;;;;;;;13.75;100.00;101437.78;4906721;29;20284;-76
2022/06/23 03:22:58;;;;;;;10.15;7.57;;;;;;;13.77;100.00;101449.25;4900817;29;20048;-77
2022/06/23 03:25:32;;;;;;;8.38;7.50;;;;;;;13.76;100.00;101451.03;4862483;29;20629;-76
2022/06/23 03:28:09;;;;;;;10.48;7.18;;;;;;;13.78;100.00;101451.00;4907338;29;20402;-77
2022/06/23 03:30:45;;;;;;;8.82;7.50;;;;;;;13.79;100.00;101448.38;4898646;29;20036;-76
2022/06/23 03:33:38;;;;;;;9.00;7.78;;;;;;;13.81;100.00;101451.03;4897932;29;20543;-76
2022/06/23 03:36:25;;;;;;;7.32;6.68;;;;;;;13.82;100.00;101453.69;4904383;29;20048;-76
2022/06/23 03:42:43;;;;;;;11.88;7.47;;;;;;;13.88;100.00;101459.88;4870406;29;20414;-77
2022/06/23 03:45:36;;;;;;;9.30;7.55;;;;;;;13.89;100.00;101451.88;4901678;29;20414;-77
2022/06/23 03:48:10;;;;;;;11.50;7.30;;;;;;;13.90;100.00;101453.66;4891267;29;20063;-77
2022/06/23 03:50:48;;;;;;;8.48;7.63;;;;;;;13.93;100.00;101461.63;4908137;29;20055;-77
2022/06/23 03:53:52;;;;;;;13.38;8.02;;;;;;;13.96;100.00;101450.13;4903821;29;20040;-76
2022/06/23 03:56:25;;;;;;;11.43;8.88;;;;;;;14.00;100.00;101450.09;4846268;29;20059;-76
2022/06/23 03:59:14;;;;;;;15.00;9.73;;;;;;;14.03;100.00;101451.91;4913217;29;20055;-76
2022/06/23 04:02:05;;;;;;;12.32;9.50;;;;;;;14.07;100.00;101450.13;4899448;29;20063;-76
2022/06/23 04:04:52;;;;;;;12.50;9.90;;;;;;;14.10;100.00;101447.44;4899859;29;20051;-76
2022/06/23 04:07:29;;;;;;;12.27;8.65;;;;;;;14.13;100.00;101456.28;4892934;29;20333;-76
2022/06/23 04:10:07;;;;;;;15.02;9.52;;;;;;;14.18;100.00;101451.88;4908400;29;20048;-76
2022/06/23 04:13:01;;;;;;;14.40;8.88;;;;;;;14.26;100.00;101446.53;4872454;29;20052;-77
2022/06/23 04:15:37;;;;;;;10.50;8.35;;;;;;;14.29;100.00;101446.53;4907845;29;20613;-76
2022/06/23 04:18:18;;;;;;;12.25;8.82;;;;;;;14.33;100.00;101456.25;4897018;29;20051;-76
2022/06/23 04:20:53;;;;;;;13.32;8.75;;;;;;;14.37;100.00;101452.69;4910318;29;20060;-76
2022/06/23 04:23:48;;;;;;;11.63;8.93;;;;;;;14.43;100.00;101446.50;4887710;29;20054;-75
2022/06/23 04:26:22;;;;;;;10.15;8.27;;;;;;;14.49;100.00;101448.25;4854478;29;21212;-77
2022/06/23 04:29:18;;;;;;;10.70;8.27;;;;;;;14.53;100.00;101450.88;4897451;29;20052;-76
2022/06/23 04:31:54;;;;;;;11.75;8.68;;;;;;;14.60;100.00;101449.13;4907533;29;20040;-76
2022/06/23 04:34:27;;;;;;;10.38;8.88;;;;;;;14.67;100.00;101437.59;4891006;29;20725;-76
2022/06/23 04:36:56;;;;;;;9.70;8.65;;;;;;;14.74;100.00;101444.63;4907522;29;20052;-76
2022/06/23 04:39:30;;;;;;;10.55;8.98;;;;;;;14.84;100.00;101442.84;4887350;29;20066;-77
2022/06/23 04:42:13;;;;;;;10.77;8.45;;;;;;;14.90;100.00;101442.78;4900039;29;20044;-77
2022/06/23 04:44:48;;;;;;;9.75;8.10;;;;;;;14.95;100.00;101430.41;4897599;29;20041;-76
2022/06/23 04:47:29;;;;;;;9.50;8.35;;;;;;;15.05;100.00;101428.56;4904004;29;20044;-76
2022/06/23 04:50:13;;;;;;;8.70;7.68;;;;;;;15.15;100.00;101434.69;4885199;29;20053;-77
2022/06/23 04:52:51;;;;;;;11.40;8.98;;;;;;;15.25;100.00;101424.88;4903469;29;20063;-77
2022/06/23 04:55:25;;;;;;;14.82;8.73;;;;;;;15.30;100.00;101425.75;4886421;29;20044;-78
2022/06/23 04:58:00;;;;;;;10.55;8.07;;;;;;;15.37;100.00;101425.69;4867956;29;20399;-77
2022/06/23 05:00:38;;;;;;;9.73;8.63;;;;;;;15.42;100.00;101425.63;4906007;29;20047;-77
2022/06/23 05:03:33;;;;;;;10.02;8.68;;;;;;;15.49;100.00;101423.84;4888529;29;20125;-76
2022/06/23 05:06:02;;;;;;;9.15;8.23;;;;;;;15.75;100.00;101416.53;4894554;29;20032;-78
2022/06/23 05:08:32;;;;;;;8.63;7.30;;;;;;;16.19;100.00;101427.63;4904807;29;20047;-78
2022/06/23 05:11:12;;;;;;;7.22;6.47;;;;;;;17.09;100.00;101430.09;4908919;29;20059;-78
2022/06/23 05:13:48;;;;;;;6.97;6.10;;;;;;;18.14;100.00;101420.38;4868216;29;20049;-78
2022/06/23 05:16:27;;;;;;;7.75;6.95;;;;;;;19.20;100.00;101408.31;4893108;29;20051;-78
2022/06/23 05:19:08;;;;;;;6.07;5.38;;;;;;;20.14;100.00;101400.59;4898694;29;20502;-78
2022/06/23 05:21:43;;;;;;;5.90;5.40;;;;;;;20.90;100.00;101414.50;4915235;29;20048;-76
2022/06/23 05:24:37;;;;;;;6.20;5.60;;;;;;;21.71;100.00;101419.91;4904968;29;20537;-78
2022/06/23 05:27:24;;;;;;;5.07;4.68;;;;;;;22.22;100.00;101423.50;4905201;29;20048;-77
2022/06/23 05:30:04;;;;;;;5.40;4.90;;;;;;;22.85;100.00;101420.28;4874532;29;20048;-78
2022/06/23 05:32:39;;;;;;;;;;;;;;;23.42;100.00;101420.72;4889507;29;20450;-75
2022/06/23 05:35:15;;;;;;;5.15;4.35;;;;;;;23.87;100.00;101412.53;4886192;29;20160;-78
2022/06/23 05:37:49;;;;;;;6.82;3.92;;;;;;;24.15;100.00;101414.00;4901464;29;20494;-78
2022/06/23 05:40:39;;;;;;;4.75;4.28;;;;;;;24.55;92.91;101408.66;4899995;29;20694;-75
2022/06/23 05:43:11;;;;;;;6.50;4.60;;;;;;;24.68;94.60;101415.22;4905606;29;20048;-78
2022/06/23 05:45:46;;;;;;;4.65;4.15;;;;;;;25.01;92.51;101417.25;4869373;29;20037;-77
2022/06/23 05:48:20;;;;;;;4.50;4.10;;;;;;;25.17;89.81;101414.69;4899614;29;20052;-77
2022/06/23 05:50:52;;;;;;;4.82;3.80;;;;;;;25.33;88.08;101417.53;4895710;29;20040;-77
2022/06/23 05:53:30;;;;;;;5.47;4.07;;;;;;;25.45;84.15;101409.69;4920058;29;20040;-77
2022/06/23 05:56:12;;;;;;;4.45;4.05;;;;;;;25.61;78.10;101406.22;4895739;29;20473;-77
2022/06/23 05:58:47;;;;;;;6.15;4.07;;;;;;;25.31;81.24;101416.72;4913245;29;20052;-77
2022/06/23 06:01:25;;;;;;;4.82;4.43;;;;;;;24.97;79.88;101421.03;4877051;29;20079;-77
2022/06/23 06:03:56;;;;;;;6.55;4.18;;;;;;;24.54;80.06;101425.75;4912771;29;20048;-77
2022/06/23 06:06:25;;;;;;;6.60;4.97;;;;;;;24.13;80.83;101419.47;4896314;29;20437;-77
2022/06/23 06:11:52;;;;;;;6.22;5.38;;;;;;;23.22;81.61;101419.72;4912421;29;20052;-76
2022/06/23 06:14:26;;;;;;;7.97;5.53;;;;;;;23.09;83.50;101419.34;4907143;29;20036;-78
2022/06/23 06:16:57;;;;;;;6.18;4.47;;;;;;;23.08;84.23;101419.41;4868746;29;20525;-77
2022/06/23 06:19:29;;;;;;;8.55;5.20;;;;;;;23.19;84.17;101413.59;4888451;29;20266;-77
2022/06/23 06:22:10;;;;;;;8.48;5.22;;;;;;;23.19;83.10;101409.09;4911255;29;20048;-77
2022/06/23 06:24:43;;;;;;;6.35;5.75;;;;;;;23.34;82.52;101410.28;4915855;29;20048;-77
2022/06/23 06:27:12;;;;;;;7.68;5.65;;;;;;;23.49;81.54;101412.31;4908847;29;20052;-77
2022/06/23 06:29:43;;;;;;;5.25;4.75;;;;;;;23.58;81.06;101405.69;4910531;29;20048;-77
2022/06/23 06:32:34;;;;;;;11.88;5.95;;;;;;;23.35;81.08;101403.97;4872701;29;20035;-77
2022/06/23 06:35:25;;;;;;;10.90;6.40;;;;;;;23.04;81.00;101409.72;4902206;29;20044;-77
2022/06/23 06:38:02;;;;;;;9.02;5.65;;;;;;;22.72;82.08;101406.44;4875589;29;20051;-77
2022/06/23 06:40:31;;;;;;;10.65;6.15;;;;;;;22.32;82.26;101410.66;4891721;29;20637;-77
2022/06/23 06:43:08;;;;;;;6.65;5.65;;;;;;;21.99;84.33;101410.91;4889611;29;20048;-77
2022/06/23 06:45:37;;;;;;;10.73;6.50;;;;;;;21.80;85.58;101411.56;4917602;29;20066;-77
2022/06/23 06:48:21;;;;;;;8.30;6.60;;;;;;;21.58;85.82;101411.41;4880101;29;20052;-77
2022/06/23 06:50:55;;;;;;;7.75;6.20;;;;;;;21.30;88.34;101405.19;4899877;29;20049;-77
2022/06/23 06:53:30;;;;;;;8.93;6.03;;;;;;;21.13;90.08;101406.59;4917750;29;20059;-77
2022/06/23 06:56:24;;;;;;;9.30;6.60;;;;;;;21.15;90.75;101417.25;4904807;29;20052;-77
2022/06/23 06:59:00;;;;;;;7.82;7.03;;;;;;;20.82;91.60;101412.03;4908892;29;20156;-77
2022/06/23 07:01:33;;;;;;;9.60;6.90;;;;;;;20.78;92.49;101405.91;4907758;29;20044;-77
2022/06/23 07:04:02;;;;;;;7.60;6.80;;;;;;;20.76;93.68;101409.56;4875405;29;20067;-77
2022/06/23 07:06:42;;;;;;;7.45;6.75;;;;;;;20.82;94.68;101412.91;4900673;29;20266;-77
2022/06/23 07:09:15;;;;;;;11.90;6.30;;;;;;;20.95;95.11;101413.41;4903143;29;20048;-77
2022/06/23 07:12:03;;;;;;;7.50;6.38;;;;;;;21.05;96.18;101399.75;4909589;29;20063;-77
2022/06/23 07:14:42;;;;;;;10.20;7.50;;;;;;;21.03;93.98;101406.00;4909462;29;20040;-78
2022/06/23 07:17:25;;;;;;;13.70;8.18;;;;;;;20.97;95.26;101406.22;4888827;29;21396;-77
2022/06/23 07:20:05;;;;;;;11.23;7.43;;;;;;;20.96;96.24;101401.78;4904336;29;20067;-77
2022/06/23 07:22:41;;;;;;;11.23;6.88;;;;;;;20.96;96.40;101403.56;4892074;29;20115;-77
2022/06/23 07:25:20;;;;;;;12.85;7.60;;;;;;;21.00;95.93;101403.44;4903932;29;20545;-77
2022/06/23 07:28:14;;;;;;;7.22;5.65;;;;;;;20.98;97.85;101396.38;4906245;29;20051;-77
2022/06/23 07:30:55;;;;;;;8.85;5.85;;;;;;;21.09;98.18;101402.25;4910433;29;20422;-77
2022/06/23 07:34:01;;;;;;;10.85;6.85;;;;;;;21.19;98.36;101390.34;4872977;29;20075;-77
2022/06/23 07:36:40;;;;;;;12.57;6.45;;;;;;;21.28;97.71;101401.69;4902198;29;20700;-77
2022/06/23 07:39:26;;;;;;;9.05;6.05;;;;;;;21.30;96.78;101402.50;4898657;29;20063;-77
2022/06/23 07:42:29;;;;;;;7.85;6.72;;;;;;;21.31;96.81;101399.78;4901991;29;20055;-77
2022/06/23 07:45:05;;;;;;;8.23;6.40;;;;;;;21.34;97.13;101391.66;4879675;29;20470;-77
2022/06/23 07:47:33;;;;;;;7.13;6.43;;;;;;;21.35;97.48;101388.00;4894352;29;20238;-77
2022/06/23 07:50:03;;;;;;;6.93;6.22;;;;;;;21.44;96.92;101394.91;4880290;29;20067;-77
2022/06/23 07:52:31;;;;;;;7.95;6.68;;;;;;;21.51;96.94;101396.47;4893293;29;20679;-77
2022/06/23 07:55:01;;;;;;;7.95;6.78;;;;;;;21.58;96.94;101386.41;4888038;29;20048;-77
2022/06/23 07:57:31;;;;;;;9.18;6.43;;;;;;;21.65;96.77;101398.69;4903165;29;20052;-77
2022/06/23 08:00:06;;;;;;;8.80;5.72;;;;;;;21.69;96.67;101399.44;4910203;29;20060;-77
2022/06/23 08:02:51;;;;;;;8.88;6.40;;;;;;;21.70;95.12;101393.13;4892345;29;20051;-77
2022/06/23 08:05:31;;;;;;;6.65;5.95;;;;;;;21.74;95.80;101386.75;4869170;29;20267;-77
2022/06/23 08:08:00;;;;;;;9.93;5.47;;;;;;;21.84;96.02;101376.59;4907128;29;20044;-77
2022/06/23 08:10:31;;;;;;;8.05;6.30;;;;;;;21.89;95.25;101386.22;4894701;29;20533;-77
2022/06/23 08:13:14;;;;;;;11.40;5.95;;;;;;;21.94;94.77;101389.59;4922455;29;20052;-77
2022/06/23 08:18:54;;;;;;;12.05;5.82;;;;;;;22.08;94.57;101385.53;4912034;29;20032;-77
2022/06/23 08:21:35;;;;;;;10.07;6.53;;;;;;;22.20;93.89;101377.06;4859368;29;20257;-77
2022/06/23 08:24:32;;;;;;;9.80;6.57;;;;;;;22.32;92.78;101381.13;4895704;29;20049;-77
2022/06/23 08:27:05;;;;;;;15.02;7.07;;;;;;;22.31;93.16;101377.56;4891722;29;20055;-77
2022/06/23 08:29:49;;;;;;;8.63;6.13;;;;;;;22.36;93.25;101370.22;4909370;29;20364;-77
2022/06/23 08:32:19;;;;;;;10.18;5.78;;;;;;;22.41;93.35;101380.78;4903849;29;20040;-78
2022/06/23 08:34:57;;;;;;;9.50;6.07;;;;;;;22.44;92.20;101372.59;4892111;29;20521;-77
2022/06/23 08:37:25;;;;;;;11.05;7.00;;;;;;;22.45;92.18;101374.34;4895818;29;20242;-77
2022/06/23 08:40:01;;;;;;;6.88;5.90;;;;;;;22.45;92.42;101360.91;4899028;29;20048;-77
2022/06/23 08:42:38;;;;;;;11.52;6.40;;;;;;;22.40;91.74;101360.25;4895978;29;20032;-77
2022/06/23 08:45:23;;;;;;;5.65;5.05;;;;;;;22.32;91.67;101347.06;4916305;29;20401;-77
2022/06/23 08:48:28;;;;;;;14.10;6.22;;;;;;;22.31;91.62;101344.47;4923507;29;20503;-77
2022/06/23 08:51:19;;;;;;;12.10;6.13;;;;;;;22.26;91.25;101341.09;4906087;29;20305;-77
2022/06/23 08:53:59;;;;;;;8.02;5.68;;;;;;;22.17;91.40;101347.63;4925753;28;20048;-77
2022/06/23 08:56:39;;;;;;;11.33;6.30;;;;;;;22.16;91.57;101341.38;4888368;29;20617;-77
2022/06/23 08:59:39;;;;;;;9.20;5.53;;;;;;;22.20;90.73;101334.09;4906366;29;20048;-77
2022/06/23 09:02:20;;;;;;;;;;;;;;;22.23;89.54;101331.31;4883489;29;20422;-77
2022/06/23 09:05:08;;;;;;;;;;;;;;;22.36;90.44;101334.41;4893109;29;19923;-77
2022/06/23 09:07:54;;;;;;;10.75;6.13;;;;;;;22.40;90.79;101330.72;4859218;29;20286;-77
2022/06/23 09:10:27;;;;;;;9.10;5.47;;;;;;;22.45;90.81;101336.75;4893195;29;20230;-77
2022/06/23 09:13:02;;;;;;;11.35;6.30;;;;;;;22.45;89.85;101334.06;4892814;29;20529;-77
2022/06/23 09:15:47;;;;;;;5.60;4.97;;;;;;;22.51;88.40;101333.84;4917621;29;20262;-77
2022/06/23 09:18:44;;;;;;;10.00;6.15;;;;;;;22.56;88.23;101331.84;4897953;29;20040;-76
2022/06/23 09:21:47;;;;;;;9.20;5.75;;;;;;;22.64;88.03;101325.28;4904550;29;20510;-77
2022/06/23 09:24:19;;;;;;;5.93;5.07;;;;;;;22.78;87.51;101328.31;4869864;29;20300;-77
2022/06/23 09:26:58;;;;;;;9.98;5.10;;;;;;;22.86;87.38;101317.25;4898227;29;20059;-77
2022/06/23 09:29:45;;;;;;;7.68;5.15;;;;;;;22.97;86.79;101312.31;4897569;29;20677;-77
2022/06/23 09:32:22;;;;;;;6.70;4.18;;;;;;;23.05;86.80;101314.72;4923406;29;20036;-77
2022/06/23 09:35:21;;;;;;;6.90;4.53;;;;;;;23.17;85.82;101314.19;4912343;29;20051;-77
2022/06/23 09:38:18;;;;;;;10.75;5.38;;;;;;;23.23;84.20;101310.38;4902341;29;20517;-77
2022/06/23 09:41:09;;;;;;;10.73;5.78;;;;;;;23.28;83.00;101313.75;4875723;29;20036;-77
2022/06/23 09:43:47;;;;;;;7.10;4.50;;;;;;;23.32;83.22;101318.03;4914811;29;20067;-77
2022/06/23 09:46:59;;;;;;;6.88;4.03;;;;;;;23.44;83.81;101312.16;4908496;29;20266;-77
2022/06/23 09:49:48;;;;;;;7.93;4.07;;;;;;;23.59;82.69;101316.00;4875594;29;20075;-77
2022/06/23 09:52:20;;;;;;;9.93;4.15;;;;;;;23.72;82.81;101319.00;4892157;29;20833;-77
2022/06/23 09:54:54;;;;;;;6.50;3.50;;;;;;;23.80;81.25;101313.31;4878795;29;20044;-77
2022/06/23 09:58:00;;;;;;;7.00;3.80;;;;;;;23.85;77.50;101311.28;4898956;29;20269;-77
2022/06/23 10:00:43;;;;;;;5.28;3.80;;;;;;;23.89;77.40;101307.50;4912107;29;20054;-77
2022/06/23 10:03:56;;;;;;;6.78;4.13;;;;;;;23.89;74.12;101311.09;4909940;29;20401;-77
2022/06/23 10:06:43;;;;;;;;;;;;;;;23.97;74.65;101307.16;4888807;29;20048;-77
2022/06/23 10:09:21;;;;;;;6.97;3.45;;;;;;;24.09;77.26;101306.59;4880997;29;19931;-77
2022/06/23 10:12:01;;;;;;;9.43;3.25;;;;;;;24.21;77.53;101303.34;4898370;29;20080;-77
2022/06/23 10:14:32;;;;;;;17.30;3.95;;;;;;;24.37;77.82;101298.13;4896753;29;20668;-77
2022/06/23 10:17:19;;;;;;;8.00;3.50;;;;;;;24.49;75.90;101289.44;4910027;29;20401;-77
2022/06/23 10:20:05;;;;;;;7.00;3.20;;;;;;;24.67;76.29;101300.31;4911057;29;20055;-77
2022/06/23 10:23:08;;;;;;;6.13;2.60;;;;;;;24.86;73.88;101303.84;4922546;29;20063;-75
2022/06/23 10:25:52;;;;;;;5.05;2.90;;;;;;;25.03;73.04;101304.84;4860497;29;20055;-76
2022/06/23 10:28:43;;;;;;;12.32;2.97;;;;;;;25.12;72.88;101295.41;4896767;29;20048;-76
2022/06/23 10:31:49;;;;;;;9.80;2.67;;;;;;;25.24;70.41;101276.81;4890655;29;20068;-76
2022/06/23 10:34:44;;;;;;;7.53;2.35;;;;;;;25.38;64.96;101294.09;4903949;29;20610;-76
2022/06/23 10:37:18;;;;;;;4.72;2.25;;;;;;;25.41;69.04;101275.94;4905402;29;20063;-79
2022/06/23 10:40:25;;;;;;;4.80;2.00;;;;;;;25.56;66.51;101274.25;4908954;29;20036;-76
2022/06/23 10:43:18;;;;;;;3.25;2.45;;;;;;;25.70;66.01;101276.22;4893907;29;20047;-76
2022/06/23 10:45:56;;;;;;;10.23;2.58;;;;;;;25.72;64.77;101263.50;4902240;29;20044;-76
2022/06/23 10:48:43;;;;;;;2.83;2.10;;;;;;;25.83;64.14;101262.94;4906037;29;20285;-76
2022/06/23 10:51:36;;;;;;;2.58;2.25;;;;;;;26.01;63.08;101258.38;4886115;29;20051;-76
2022/06/23 10:54:14;;;;;;;4.13;2.05;;;;;;;26.10;63.39;101257.00;4916323;29;20059;-78
2022/06/23 10:57:07;;;;;;;3.25;1.90;;;;;;;26.26;64.56;101258.75;4872249;29;20050;-77
2022/06/23 10:59:47;;;;;;;4.32;2.17;;;;;;;26.39;62.30;101248.13;4907996;29;20044;-77
2022/06/23 11:02:51;;;;;;;4.00;1.80;;;;;;;26.45;60.55;101253.19;4895037;29;20411;-77
2022/06/23 11:05:29;;;;;;;3.97;1.90;;;;;;;26.57;61.25;101259.69;4897901;29;20059;-77
2022/06/23 11:08:11;;;;;;;3.60;1.85;;;;;;;26.70;59.36;101251.78;4908382;29;20056;-76
2022/06/23 11:10:58;;;;;;;3.00;2.17;;;;;;;26.78;58.08;101246.81;4907658;29;20040;-76
2022/06/23 11:13:35;;;;;;;2.83;2.00;;;;;;;26.94;59.09;101240.53;4883772;29;20084;-76
2022/06/23 11:16:37;;;;;;;4.88;2.22;;;;;;;27.05;54.16;101243.41;4893595;29;20053;-76
2022/06/23 11:19:10;;;;;;;5.22;2.03;;;;;;;27.15;59.34;101235.66;4897802;29;20059;-76
2022/06/23 11:21:52;;;;;;;4.47;2.17;;;;;;;27.33;56.05;101234.53;4907975;29;20414;-76
2022/06/23 11:24:32;;;;;;;5.18;2.00;;;;;;;27.39;55.88;101228.78;4905542;29;20541;-76
2022/06/23 11:27:28;;;;;;;4.00;2.05;;;;;;;27.54;56.82;101224.25;4899494;29;20048;-78
2022/06/23 11:30:18;;;;;;;3.53;1.70;;;;;;;27.65;55.83;101236.22;4891658;29;20052;-78
2022/06/23 11:33:08;;;;;;;;;;;;;;;27.65;53.62;101222.69;4904206;29;20405;-75
2022/06/23 11:36:21;;;;;;;2.05;1.50;;;;;;;27.74;55.09;101225.69;4908718;29;19931;-75
2022/06/23 11:39:22;;;;;;;3.90;2.22;;;;;;;27.86;55.65;101215.06;4908229;29;20417;-75
2022/06/23 11:42:19;;;;;;;3.17;2.00;;;;;;;27.97;54.17;101221.53;4896687;29;20044;-76
2022/06/23 11:45:18;;;;;;;5.43;2.20;;;;;;;28.00;52.35;101221.34;4890032;29;20036;-76
2022/06/23 11:48:21;;;;;;;3.08;2.00;;;;;;;28.11;53.46;101217.97;4895611;29;20040;-75
2022/06/23 11:51:11;;;;;;;6.80;2.33;;;;;;;28.12;51.48;101205.28;4908404;29;20047;-76
2022/06/23 11:54:06;;;;;;;2.53;1.80;;;;;;;28.13;52.90;101202.47;4899347;29;20059;-76
2022/06/23 11:56:54;;;;;;;3.90;2.00;;;;;;;28.17;53.66;101197.72;4890230;29;20055;-76
2022/06/23 11:59:29;;;;;;;5.03;2.20;;;;;;;28.29;52.98;101196.06;4865675;29;20075;-76
2022/06/23 12:02:17;;;;;;;5.43;2.15;;;;;;;28.40;53.04;101198.91;4897601;29;20277;-78
2022/06/23 12:05:12;;;;;;;7.40;2.00;;;;;;;28.54;52.88;101184.47;4875500;29;20055;-75
2022/06/23 12:08:10;;;;;;;3.58;2.05;;;;;;;28.69;52.10;101190.69;4888398;29;20544;-76
2022/06/23 12:10:39;;;;;;;3.30;2.00;;;;;;;28.83;51.33;101198.78;4906979;29;20056;-76
2022/06/23 12:13:07;;;;;;;6.75;1.88;;;;;;;28.84;49.87;101192.38;4881167;29;20549;-76
2022/06/23 12:15:47;;;;;;;7.50;2.17;;;;;;;28.90;50.14;101194.69;4867165;29;20170;-76
2022/06/23 12:18:20;;;;;;;5.15;2.20;;;;;;;28.94;50.61;101184.47;4888475;29;20242;-77
2022/06/23 12:20:58;;;;;;;7.43;2.10;;;;;;;29.01;49.60;101177.63;4906969;29;20036;-76
2022/06/23 12:23:45;;;;;;;8.60;2.40;;;;;;;29.02;50.71;101173.97;4904676;29;20052;-76
2022/06/23 12:26:23;;;;;;;3.33;2.08;;;;;;;29.08;50.96;101173.53;4904220;29;20526;-76
2022/06/23 12:29:13;;;;;;;2.72;1.90;;;;;;;29.23;48.55;101173.47;4908185;29;20063;-76
2022/06/23 12:32:02;;;;;;;4.90;2.13;;;;;;;29.34;49.38;101173.59;4897505;29;20104;-76
2022/06/23 12:34:31;;;;;;;;;;;;;;;29.32;46.64;101165.56;4892985;29;20174;-76
2022/06/23 12:37:18;;;;;;;4.78;1.63;;;;;;;29.37;47.95;101154.34;4906847;29;19923;-76
2022/06/23 12:39:52;;;;;;;13.88;2.63;;;;;;;29.46;50.17;101153.69;4906100;29;20051;-76
2022/06/23 12:42:37;;;;;;;5.22;2.10;;;;;;;29.55;49.18;101150.31;4886705;29;20356;-77